createdAt,value
2023-10-31T00:00:11.858Z,991.1
2023-10-31T00:01:13.316Z,991.2
2023-10-31T00:02:14.864Z,991.2
2023-10-31T00:03:16.307Z,991.2
2023-10-31T00:04:17.678Z,991.2
2023-10-31T00:05:21.348Z,991.3
2023-10-31T00:06:20.420Z,991.3
2023-10-31T00:07:21.741Z,991.3
2023-10-31T00:08:23.117Z,991.3
2023-10-31T00:09:24.511Z,991.3
2023-10-31T00:10:25.848Z,991.3
2023-10-31T00:11:27.265Z,991.3
2023-10-31T00:12:28.640Z,991.3
2023-10-31T00:13:29.930Z,991.4
2023-10-31T00:14:31.773Z,991.4
2023-10-31T00:15:32.815Z,991.4
2023-10-31T00:16:34.136Z,991.4
2023-10-31T00:17:35.782Z,991.4
2023-10-31T00:18:37.148Z,991.4
2023-10-31T00:19:38.451Z,991.4
2023-10-31T00:20:39.814Z,991.4
2023-10-31T00:21:41.204Z,991.4
2023-10-31T00:22:42.601Z,991.4
2023-10-31T00:23:44.280Z,991.5
2023-10-31T00:24:45.806Z,991.5
2023-10-31T00:25:47.276Z,991.5
2023-10-31T00:26:48.796Z,991.5
2023-10-31T00:27:50.325Z,991.5
2023-10-31T00:28:51.755Z,991.5
2023-10-31T00:29:53.221Z,991.6
2023-10-31T00:30:54.606Z,991.6
2023-10-31T00:31:56.085Z,991.5
2023-10-31T00:32:57.530Z,991.5
2023-10-31T00:33:59.025Z,991.5
2023-10-31T00:35:00.329Z,991.5
2023-10-31T00:36:01.600Z,991.6
2023-10-31T00:37:02.999Z,991.6
2023-10-31T00:38:04.433Z,991.6
2023-10-31T00:39:05.781Z,991.6
2023-10-31T00:40:07.206Z,991.6
2023-10-31T00:41:08.608Z,991.6
2023-10-31T00:42:09.807Z,991.7
2023-10-31T00:43:11.143Z,991.6
2023-10-31T00:44:12.594Z,991.6
2023-10-31T00:45:14.007Z,991.7
2023-10-31T00:46:15.379Z,991.6
2023-10-31T00:47:16.814Z,991.6
2023-10-31T00:48:18.198Z,991.7
2023-10-31T00:49:19.423Z,991.6
2023-10-31T00:50:20.965Z,991.6
2023-10-31T00:51:22.221Z,991.6
2023-10-31T00:52:23.538Z,991.6
2023-10-31T00:53:25.023Z,991.6
2023-10-31T00:54:26.620Z,991.7
2023-10-31T00:55:27.904Z,991.7
2023-10-31T00:56:29.318Z,991.7
2023-10-31T00:57:30.600Z,991.7
2023-10-31T00:58:32.055Z,991.6
2023-10-31T00:59:33.396Z,991.7
2023-10-31T01:00:34.765Z,991.7
2023-10-31T01:01:36.156Z,991.7
2023-10-31T01:02:37.652Z,991.7
2023-10-31T01:03:38.941Z,991.8
2023-10-31T01:04:40.361Z,991.7
2023-10-31T01:05:41.649Z,991.7
2023-10-31T01:06:42.992Z,991.8
2023-10-31T01:07:44.383Z,991.8
2023-10-31T01:08:45.765Z,991.9
2023-10-31T01:09:47.220Z,991.9
2023-10-31T01:10:48.765Z,991.9
2023-10-31T01:11:50.164Z,991.8
2023-10-31T01:12:51.628Z,991.9
2023-10-31T01:13:53.105Z,992
2023-10-31T01:14:54.562Z,991.9
2023-10-31T01:15:55.902Z,991.9
2023-10-31T01:16:57.385Z,991.9
2023-10-31T01:17:58.685Z,991.9
2023-10-31T01:19:00.109Z,992
2023-10-31T01:20:01.490Z,991.9
2023-10-31T01:21:03.351Z,991.9
2023-10-31T01:22:04.873Z,991.9
2023-10-31T01:23:06.507Z,991.9
2023-10-31T01:24:07.879Z,991.9
2023-10-31T01:25:09.230Z,992
2023-10-31T01:26:10.685Z,991.9
2023-10-31T01:27:11.964Z,992
2023-10-31T01:28:13.238Z,992
2023-10-31T01:29:14.657Z,992
2023-10-31T01:31:39.645Z,992.1
2023-10-31T01:32:38.428Z,992.1
2023-10-31T01:33:40.051Z,992.2
2023-10-31T01:34:41.226Z,992.2
2023-10-31T01:35:42.613Z,992.2
2023-10-31T01:36:43.906Z,992.2
2023-10-31T01:37:45.377Z,992.2
2023-10-31T01:38:46.831Z,992.3
2023-10-31T01:39:48.430Z,992.2
2023-10-31T01:40:50.091Z,992.2
2023-10-31T01:41:51.561Z,992.3
2023-10-31T01:42:53.069Z,992.3
2023-10-31T01:43:54.568Z,992.2
2023-10-31T01:44:55.934Z,992.2
2023-10-31T01:45:57.356Z,992.2
2023-10-31T01:46:58.786Z,992.2
2023-10-31T01:48:00.253Z,992.2
2023-10-31T01:49:04.653Z,992.2
2023-10-31T01:50:05.989Z,992.2
2023-10-31T01:51:07.339Z,992.3
2023-10-31T01:52:08.781Z,992.1
2023-10-31T01:53:10.254Z,992.2
2023-10-31T01:54:12.177Z,992.2
2023-10-31T01:55:16.313Z,992.2
2023-10-31T01:56:17.617Z,992.2
2023-10-31T01:57:18.982Z,992.3
2023-10-31T01:58:20.425Z,992.2
2023-10-31T01:59:21.812Z,992.2
2023-10-31T02:00:23.202Z,992.2
2023-10-31T02:01:24.649Z,992.2
2023-10-31T02:02:26.404Z,992.2
2023-10-31T02:03:27.745Z,992.1
2023-10-31T02:04:29.059Z,992.1
2023-10-31T02:05:30.531Z,992.1
2023-10-31T02:06:32.018Z,992.1
2023-10-31T02:07:33.326Z,992.1
2023-10-31T02:08:34.902Z,992.1
2023-10-31T02:09:36.353Z,992.1
2023-10-31T02:10:37.892Z,992.1
2023-10-31T02:11:39.254Z,992.2
2023-10-31T02:12:40.753Z,992.2
2023-10-31T02:13:42.455Z,992.2
2023-10-31T02:14:43.793Z,992.1
2023-10-31T02:15:45.312Z,992.1
2023-10-31T02:16:46.681Z,992.2
2023-10-31T02:17:48.232Z,992.2
2023-10-31T02:18:49.485Z,992.2
2023-10-31T02:19:51.000Z,992.2
2023-10-31T02:20:52.500Z,992.2
2023-10-31T02:21:53.946Z,992.2
2023-10-31T02:22:55.446Z,992.3
2023-10-31T02:23:56.742Z,992.2
2023-10-31T02:24:58.042Z,992.3
2023-10-31T02:25:59.471Z,992.3
2023-10-31T02:27:00.736Z,992.3
2023-10-31T02:28:02.278Z,992.3
2023-10-31T02:29:03.892Z,992.3
2023-10-31T02:30:07.785Z,992.3
2023-10-31T02:31:09.156Z,992.3
2023-10-31T02:32:10.590Z,992.3
2023-10-31T02:33:11.874Z,992.3
2023-10-31T02:34:13.047Z,992.3
2023-10-31T02:35:14.465Z,992.3
2023-10-31T02:36:15.942Z,992.3
2023-10-31T02:37:17.369Z,992.2
2023-10-31T02:38:18.649Z,992.2
2023-10-31T02:39:20.029Z,992.2
2023-10-31T02:40:21.287Z,992.3
2023-10-31T02:41:22.817Z,992.2
2023-10-31T02:42:24.072Z,992.3
2023-10-31T02:43:25.436Z,992.3
2023-10-31T02:44:26.730Z,992.3
2023-10-31T02:45:28.070Z,992.3
2023-10-31T02:46:29.498Z,992.3
2023-10-31T02:47:30.954Z,992.3
2023-10-31T02:49:56.109Z,992.3
2023-10-31T02:50:57.354Z,992.3
2023-10-31T02:51:58.754Z,992.3
2023-10-31T02:53:00.067Z,992.3
2023-10-31T02:54:01.376Z,992.4
2023-10-31T02:55:02.618Z,992.3
2023-10-31T02:56:04.144Z,992.4
2023-10-31T02:57:05.415Z,992.3
2023-10-31T02:58:06.907Z,992.4
2023-10-31T02:59:08.271Z,992.3
2023-10-31T03:00:11.640Z,992.3
2023-10-31T03:01:13.188Z,992.4
2023-10-31T03:02:14.801Z,992.5
2023-10-31T03:03:16.114Z,992.5
2023-10-31T03:04:17.514Z,992.5
2023-10-31T03:05:18.837Z,992.5
2023-10-31T03:06:20.194Z,992.5
2023-10-31T03:07:21.485Z,992.5
2023-10-31T03:08:22.792Z,992.5
2023-10-31T03:09:24.023Z,992.5
2023-10-31T03:10:25.592Z,992.5
2023-10-31T03:11:27.053Z,992.5
2023-10-31T03:12:28.440Z,992.5
2023-10-31T03:13:29.733Z,992.5
2023-10-31T03:14:31.124Z,992.4
2023-10-31T03:15:32.425Z,992.5
2023-10-31T03:16:33.877Z,992.5
2023-10-31T03:17:35.090Z,992.5
2023-10-31T03:18:36.431Z,992.5
2023-10-31T03:19:37.856Z,992.5
2023-10-31T03:20:39.334Z,992.5
2023-10-31T03:21:40.653Z,992.5
2023-10-31T03:22:41.979Z,992.5
2023-10-31T03:23:43.322Z,992.5
2023-10-31T03:24:44.655Z,992.4
2023-10-31T03:25:45.997Z,992.5
2023-10-31T03:26:47.285Z,992.5
2023-10-31T03:27:48.610Z,992.5
2023-10-31T03:28:49.945Z,992.5
2023-10-31T03:29:51.203Z,992.5
2023-10-31T03:30:52.759Z,992.5
2023-10-31T03:31:54.035Z,992.6
2023-10-31T03:32:55.313Z,992.5
2023-10-31T03:33:56.617Z,992.5
2023-10-31T03:34:57.977Z,992.5
2023-10-31T03:35:59.268Z,992.6
2023-10-31T03:37:00.602Z,992.5
2023-10-31T03:38:02.005Z,992.5
2023-10-31T03:39:03.194Z,992.5
2023-10-31T03:40:04.500Z,992.5
2023-10-31T03:41:05.962Z,992.6
2023-10-31T03:42:07.227Z,992.6
2023-10-31T03:43:08.518Z,992.7
2023-10-31T03:44:09.935Z,992.7
2023-10-31T03:45:11.191Z,992.7
2023-10-31T03:46:12.428Z,992.7
2023-10-31T03:47:13.818Z,992.7
2023-10-31T03:48:15.063Z,992.7
2023-10-31T03:49:16.318Z,992.7
2023-10-31T03:50:17.685Z,992.7
2023-10-31T03:51:19.065Z,992.7
2023-10-31T03:52:20.334Z,992.7
2023-10-31T03:53:21.684Z,992.8
2023-10-31T03:54:22.992Z,992.8
2023-10-31T03:55:24.403Z,992.8
2023-10-31T03:56:25.719Z,992.9
2023-10-31T03:57:27.037Z,992.9
2023-10-31T03:58:28.639Z,992.9
2023-10-31T03:59:29.888Z,992.9
2023-10-31T04:00:31.923Z,992.9
2023-10-31T04:01:33.183Z,992.9
2023-10-31T04:02:34.556Z,992.9
2023-10-31T04:03:36.025Z,992.9
2023-10-31T04:04:37.316Z,993
2023-10-31T04:05:38.571Z,992.9
2023-10-31T04:06:39.961Z,993
2023-10-31T04:07:41.319Z,993
2023-10-31T04:08:42.905Z,993
2023-10-31T04:09:44.237Z,992.9
2023-10-31T04:10:45.637Z,993
2023-10-31T04:11:46.910Z,992.9
2023-10-31T04:12:48.182Z,992.9
2023-10-31T04:13:49.553Z,993
2023-10-31T04:14:50.798Z,993
2023-10-31T04:15:52.069Z,993
2023-10-31T04:16:53.481Z,993
2023-10-31T04:17:54.705Z,993
2023-10-31T04:18:55.971Z,993
2023-10-31T04:19:57.320Z,993
2023-10-31T04:20:58.847Z,993.1
2023-10-31T04:22:00.198Z,993.1
2023-10-31T04:23:01.524Z,993
2023-10-31T04:24:03.173Z,993.1
2023-10-31T04:25:04.506Z,993
2023-10-31T04:26:06.048Z,993.1
2023-10-31T04:27:07.475Z,993.1
2023-10-31T04:28:09.019Z,993.1
2023-10-31T04:29:10.428Z,993
2023-10-31T04:30:14.223Z,993.1
2023-10-31T04:31:13.034Z,993
2023-10-31T04:32:14.420Z,993.1
2023-10-31T04:33:15.710Z,993.1
2023-10-31T04:34:17.060Z,993.1
2023-10-31T04:35:18.412Z,993.1
2023-10-31T04:36:19.680Z,993.1
2023-10-31T04:37:20.928Z,993.1
2023-10-31T04:38:22.199Z,993.1
2023-10-31T04:39:23.726Z,993.1
2023-10-31T04:40:25.048Z,993.1
2023-10-31T04:41:26.335Z,993.2
2023-10-31T04:42:27.623Z,993.2
2023-10-31T04:43:28.920Z,993.2
2023-10-31T04:44:30.243Z,993.3
2023-10-31T04:45:31.586Z,993.3
2023-10-31T04:46:33.024Z,993.3
2023-10-31T04:47:34.407Z,993.2
2023-10-31T04:48:35.694Z,993.3
2023-10-31T04:49:37.164Z,993.2
2023-10-31T04:50:38.571Z,993.3
2023-10-31T04:51:39.850Z,993.3
2023-10-31T04:52:41.233Z,993.3
2023-10-31T04:53:42.461Z,993.3
2023-10-31T04:54:43.804Z,993.3
2023-10-31T04:55:45.186Z,993.3
2023-10-31T04:56:46.441Z,993.2
2023-10-31T04:57:47.730Z,993.2
2023-10-31T04:58:49.141Z,993.3
2023-10-31T04:59:50.419Z,993.3
2023-10-31T05:00:51.690Z,993.3
2023-10-31T05:01:52.965Z,993.3
2023-10-31T05:02:54.328Z,993.3
2023-10-31T05:03:59.210Z,993.3
2023-10-31T05:04:57.425Z,993.4
2023-10-31T05:05:58.738Z,993.4
2023-10-31T05:06:59.942Z,993.4
2023-10-31T05:08:01.280Z,993.3
2023-10-31T05:09:02.558Z,993.3
2023-10-31T05:10:04.086Z,993.3
2023-10-31T05:11:05.597Z,993.3
2023-10-31T05:12:06.800Z,993.3
2023-10-31T05:13:08.168Z,993.3
2023-10-31T05:14:09.678Z,993.3
2023-10-31T05:15:11.143Z,993.3
2023-10-31T05:16:12.425Z,993.3
2023-10-31T05:17:13.712Z,993.3
2023-10-31T05:18:15.026Z,993.3
2023-10-31T05:19:16.347Z,993.3
2023-10-31T05:20:17.902Z,993.4
2023-10-31T05:21:19.173Z,993.3
2023-10-31T05:22:20.950Z,993.3
2023-10-31T05:23:21.961Z,993.3
2023-10-31T05:24:23.194Z,993.4
2023-10-31T05:25:24.516Z,993.4
2023-10-31T05:26:25.801Z,993.4
2023-10-31T05:27:27.138Z,993.4
2023-10-31T05:28:28.433Z,993.4
2023-10-31T05:29:29.712Z,993.4
2023-10-31T05:30:31.093Z,993.4
2023-10-31T05:31:32.559Z,993.4
2023-10-31T05:32:34.103Z,993.5
2023-10-31T05:33:35.460Z,993.4
2023-10-31T05:34:36.737Z,993.5
2023-10-31T05:35:38.160Z,993.5
2023-10-31T05:36:39.411Z,993.6
2023-10-31T05:37:40.736Z,993.5
2023-10-31T05:38:42.032Z,993.5
2023-10-31T05:40:14.264Z,993.6
2023-10-31T05:41:15.645Z,993.6
2023-10-31T05:42:17.144Z,993.6
2023-10-31T05:43:18.506Z,993.6
2023-10-31T05:44:20.310Z,993.6
2023-10-31T05:45:21.757Z,993.6
2023-10-31T05:46:23.160Z,993.6
2023-10-31T05:47:24.576Z,993.7
2023-10-31T05:48:25.926Z,993.7
2023-10-31T05:49:27.534Z,993.7
2023-10-31T05:50:28.942Z,993.7
2023-10-31T05:51:30.597Z,993.7
2023-10-31T05:52:32.354Z,993.7
2023-10-31T05:53:33.855Z,993.8
2023-10-31T05:54:35.495Z,993.8
2023-10-31T05:55:40.131Z,993.8
2023-10-31T05:56:41.684Z,993.7
2023-10-31T05:57:43.124Z,993.8
2023-10-31T05:58:47.266Z,993.8
2023-10-31T05:59:48.633Z,993.8
2023-10-31T06:00:50.633Z,993.8
2023-10-31T06:01:52.436Z,993.8
2023-10-31T06:02:53.866Z,993.8
2023-10-31T06:03:55.248Z,993.9
2023-10-31T06:04:56.706Z,993.8
2023-10-31T06:05:58.319Z,993.9
2023-10-31T06:06:59.877Z,993.9
2023-10-31T06:08:01.337Z,993.9
2023-10-31T06:09:03.139Z,993.9
2023-10-31T06:10:04.707Z,994
2023-10-31T06:11:06.107Z,994
2023-10-31T06:12:07.553Z,994
2023-10-31T06:13:08.874Z,993.9
2023-10-31T06:14:10.340Z,994
2023-10-31T06:15:14.841Z,994
2023-10-31T06:16:16.282Z,994
2023-10-31T06:18:38.897Z,993.9
2023-10-31T06:19:40.576Z,994.1
2023-10-31T06:20:41.887Z,994.1
2023-10-31T06:21:43.251Z,994
2023-10-31T06:22:44.768Z,994.1
2023-10-31T06:23:49.058Z,994.1
2023-10-31T06:24:53.788Z,994.1
2023-10-31T06:26:06.863Z,994.1
2023-10-31T06:27:05.869Z,994.1
2023-10-31T06:28:07.293Z,994.1
2023-10-31T06:29:18.417Z,994.2
2023-10-31T06:30:16.729Z,994.1
2023-10-31T06:31:12.215Z,994.1
2023-10-31T06:32:13.550Z,994.1
2023-10-31T06:33:14.980Z,994.2
2023-10-31T06:34:16.558Z,994.2
2023-10-31T06:35:17.991Z,994.1
2023-10-31T06:36:22.081Z,994.2
2023-10-31T06:37:23.711Z,994.2
2023-10-31T06:38:25.256Z,994.2
2023-10-31T06:39:26.707Z,994.2
2023-10-31T06:40:28.256Z,994.2
2023-10-31T06:41:29.985Z,994.3
2023-10-31T06:42:31.483Z,994.3
2023-10-31T06:43:35.062Z,994.3
2023-10-31T06:44:34.449Z,994.3
2023-10-31T06:45:35.853Z,994.3
2023-10-31T06:46:37.288Z,994.4
2023-10-31T06:47:38.895Z,994.4
2023-10-31T06:48:40.616Z,994.4
2023-10-31T06:49:42.552Z,994.4
2023-10-31T06:50:44.129Z,994.4
2023-10-31T06:51:45.608Z,994.5
2023-10-31T06:52:47.231Z,994.5
2023-10-31T06:53:48.652Z,994.5
2023-10-31T06:54:50.193Z,994.5
2023-10-31T06:55:52.545Z,994.6
2023-10-31T06:56:53.127Z,994.6
2023-10-31T06:57:54.639Z,994.6
2023-10-31T06:58:56.077Z,994.6
2023-10-31T06:59:58.470Z,994.6
2023-10-31T07:00:59.831Z,994.6
2023-10-31T07:02:01.258Z,994.6
2023-10-31T07:03:02.905Z,994.7
2023-10-31T07:04:04.315Z,994.7
2023-10-31T07:05:05.914Z,994.7
2023-10-31T07:06:07.294Z,994.7
2023-10-31T07:07:09.160Z,994.7
2023-10-31T07:08:10.610Z,994.7
2023-10-31T07:10:32.870Z,994.8
2023-10-31T07:11:35.001Z,994.8
2023-10-31T07:12:37.349Z,994.8
2023-10-31T07:13:38.999Z,994.8
2023-10-31T07:14:40.620Z,994.8
2023-10-31T07:15:42.274Z,994.8
2023-10-31T07:16:44.052Z,994.8
2023-10-31T07:17:45.810Z,994.8
2023-10-31T07:18:48.357Z,994.8
2023-10-31T07:19:49.836Z,994.8
2023-10-31T07:20:51.619Z,994.8
2023-10-31T07:21:54.231Z,994.8
2023-10-31T07:22:58.595Z,994.8
2023-10-31T07:24:00.519Z,994.8
2023-10-31T07:25:04.801Z,994.8
2023-10-31T07:26:07.015Z,994.9
2023-10-31T07:27:08.574Z,994.9
2023-10-31T07:28:09.931Z,994.9
2023-10-31T07:29:11.853Z,994.9
2023-10-31T07:30:13.688Z,994.8
2023-10-31T07:31:15.251Z,994.9
2023-10-31T07:32:17.030Z,994.8
2023-10-31T07:33:18.777Z,994.9
2023-10-31T07:34:21.018Z,994.9
2023-10-31T07:35:22.458Z,994.9
2023-10-31T07:36:24.069Z,994.9
2023-10-31T07:37:25.477Z,994.9
2023-10-31T07:38:27.101Z,994.9
2023-10-31T07:39:28.952Z,994.9
2023-10-31T07:40:32.056Z,995
2023-10-31T07:41:33.659Z,995
2023-10-31T07:42:35.524Z,995
2023-10-31T07:43:38.924Z,994.9
2023-10-31T07:44:38.808Z,995
2023-10-31T07:45:40.317Z,995.1
2023-10-31T07:46:41.701Z,995.1
2023-10-31T07:47:43.162Z,995.1
2023-10-31T07:48:44.432Z,995.1
2023-10-31T07:49:46.021Z,995.1
2023-10-31T07:50:47.260Z,995.1
2023-10-31T07:51:51.436Z,995.1
2023-10-31T07:52:52.738Z,995.2
2023-10-31T07:53:54.082Z,995.2
2023-10-31T07:54:55.623Z,995.3
2023-10-31T07:55:56.984Z,995.2
2023-10-31T07:56:58.632Z,995.2
2023-10-31T07:58:00.078Z,995.2
2023-10-31T07:59:01.692Z,995.2
2023-10-31T08:00:12.533Z,995.3
2023-10-31T08:01:14.067Z,995.3
2023-10-31T08:02:15.557Z,995.4
2023-10-31T08:03:17.033Z,995.4
2023-10-31T08:04:18.572Z,995.4
2023-10-31T08:05:20.107Z,995.4
2023-10-31T08:06:21.462Z,995.4
2023-10-31T08:07:22.938Z,995.4
2023-10-31T08:08:24.331Z,995.5
2023-10-31T08:09:25.800Z,995.4
2023-10-31T08:10:30.039Z,995.5
2023-10-31T08:11:31.493Z,995.5
2023-10-31T08:12:32.821Z,995.5
2023-10-31T08:13:34.137Z,995.4
2023-10-31T08:14:38.432Z,995.4
2023-10-31T08:15:39.910Z,995.5
2023-10-31T08:16:41.329Z,995.5
2023-10-31T08:17:42.801Z,995.5
2023-10-31T08:18:46.792Z,995.5
2023-10-31T08:19:48.120Z,995.5
2023-10-31T08:20:49.548Z,995.6
2023-10-31T08:21:50.924Z,995.6
2023-10-31T08:22:52.289Z,995.5
2023-10-31T08:23:53.762Z,995.6
2023-10-31T08:24:55.123Z,995.6
2023-10-31T08:25:59.451Z,995.6
2023-10-31T08:27:00.898Z,995.6
2023-10-31T08:28:02.513Z,995.6
2023-10-31T08:29:06.603Z,995.6
2023-10-31T08:30:10.903Z,995.5
2023-10-31T08:31:12.526Z,995.6
2023-10-31T08:32:14.307Z,995.6
2023-10-31T08:33:15.824Z,995.6
2023-10-31T08:34:17.355Z,995.6
2023-10-31T08:35:18.734Z,995.7
2023-10-31T08:36:20.063Z,995.6
2023-10-31T08:38:47.098Z,995.7
2023-10-31T08:39:48.526Z,995.7
2023-10-31T08:40:49.946Z,995.7
2023-10-31T08:43:11.729Z,995.7
2023-10-31T08:44:13.454Z,995.8
2023-10-31T08:45:15.109Z,995.7
2023-10-31T08:46:16.934Z,995.8
2023-10-31T08:47:18.380Z,995.8
2023-10-31T08:48:22.656Z,995.8
2023-10-31T08:49:27.062Z,995.8
2023-10-31T08:51:30.162Z,995.8
2023-10-31T08:52:31.744Z,995.9
2023-10-31T08:53:33.147Z,995.9
2023-10-31T08:54:35.220Z,995.9
2023-10-31T08:55:36.783Z,995.9
2023-10-31T08:56:38.225Z,995.9
2023-10-31T08:57:39.873Z,996
2023-10-31T08:58:41.280Z,996
2023-10-31T08:59:42.781Z,996
2023-10-31T09:00:44.700Z,996.1
2023-10-31T09:01:46.048Z,996
2023-10-31T09:02:47.469Z,996.1
2023-10-31T09:03:48.894Z,996.1
2023-10-31T09:04:50.274Z,996.1
2023-10-31T09:05:51.678Z,996.2
2023-10-31T09:06:53.051Z,996.2
2023-10-31T09:07:56.299Z,996.2
2023-10-31T09:08:55.925Z,996.2
2023-10-31T09:09:57.946Z,996.2
2023-10-31T09:10:59.819Z,996.2
2023-10-31T09:12:01.253Z,996.3
2023-10-31T09:13:02.760Z,996.3
2023-10-31T09:14:04.400Z,996.3
2023-10-31T09:15:05.756Z,996.3
2023-10-31T09:16:07.248Z,996.3
2023-10-31T09:17:08.800Z,996.4
2023-10-31T09:18:10.270Z,996.4
2023-10-31T09:19:11.621Z,996.3
2023-10-31T09:20:12.979Z,996.4
2023-10-31T09:21:14.563Z,996.4
2023-10-31T09:22:16.122Z,996.4
2023-10-31T09:23:17.419Z,996.5
2023-10-31T09:24:18.744Z,996.4
2023-10-31T09:25:20.171Z,996.5
2023-10-31T09:26:21.576Z,996.5
2023-10-31T09:27:22.957Z,996.5
2023-10-31T09:28:24.275Z,996.5
2023-10-31T09:29:28.416Z,996.5
2023-10-31T09:30:27.203Z,996.5
2023-10-31T09:31:28.725Z,996.5
2023-10-31T09:32:30.438Z,996.6
2023-10-31T09:33:31.787Z,996.6
2023-10-31T09:34:33.175Z,996.6
2023-10-31T09:35:34.783Z,996.5
2023-10-31T09:37:59.771Z,996.6
2023-10-31T09:39:01.295Z,996.6
2023-10-31T09:40:02.871Z,996.6
2023-10-31T09:41:04.736Z,996.6
2023-10-31T09:42:06.530Z,996.7
2023-10-31T09:43:08.425Z,996.7
2023-10-31T09:44:10.024Z,996.7
2023-10-31T09:45:11.986Z,996.7
2023-10-31T09:46:13.485Z,996.7
2023-10-31T09:47:15.246Z,996.7
2023-10-31T09:48:16.919Z,996.8
2023-10-31T09:49:18.319Z,996.8
2023-10-31T09:50:20.429Z,996.8
2023-10-31T09:51:22.088Z,996.8
2023-10-31T09:52:23.721Z,996.8
2023-10-31T09:53:25.447Z,996.9
2023-10-31T09:54:26.946Z,996.8
2023-10-31T09:55:28.459Z,996.9
2023-10-31T09:56:29.909Z,996.8
2023-10-31T09:57:31.733Z,996.9
2023-10-31T09:58:33.540Z,996.9
2023-10-31T09:59:34.930Z,996.9
2023-10-31T10:00:36.628Z,996.9
2023-10-31T10:01:38.505Z,996.9
2023-10-31T10:02:39.777Z,996.9
2023-10-31T10:03:41.249Z,997
2023-10-31T10:04:42.821Z,997
2023-10-31T10:05:44.484Z,997
2023-10-31T10:06:45.839Z,997
2023-10-31T10:07:47.283Z,997
2023-10-31T10:08:48.722Z,997
2023-10-31T10:09:50.419Z,997
2023-10-31T10:10:52.319Z,997
2023-10-31T10:11:55.313Z,997
2023-10-31T10:12:55.359Z,997
2023-10-31T10:13:56.655Z,997
2023-10-31T10:14:57.996Z,997.1
2023-10-31T10:15:59.375Z,997.1
2023-10-31T10:17:01.310Z,997.1
2023-10-31T10:18:02.513Z,997.1
2023-10-31T10:19:03.991Z,997.1
2023-10-31T10:20:05.535Z,997.1
2023-10-31T10:21:06.945Z,997.1
2023-10-31T10:22:08.350Z,997
2023-10-31T10:23:09.800Z,997.1
2023-10-31T10:24:11.448Z,997.1
2023-10-31T10:25:12.584Z,997.1
2023-10-31T10:26:14.224Z,997.1
2023-10-31T10:27:15.613Z,997.1
2023-10-31T10:28:17.107Z,997.1
2023-10-31T10:29:18.477Z,997.1
2023-10-31T10:30:19.788Z,997.1
2023-10-31T10:31:21.514Z,997.1
2023-10-31T10:32:23.325Z,997.1
2023-10-31T10:33:24.458Z,997.1
2023-10-31T10:34:25.820Z,997.1
2023-10-31T10:35:27.156Z,997.1
2023-10-31T10:36:28.462Z,997.1
2023-10-31T10:37:29.842Z,997.1
2023-10-31T10:38:31.502Z,997.1
2023-10-31T10:39:33.317Z,997.1
2023-10-31T10:40:34.368Z,997.1
2023-10-31T10:41:36.019Z,997.1
2023-10-31T10:42:37.572Z,997.1
2023-10-31T10:43:39.255Z,997.1
2023-10-31T10:44:40.676Z,997.1
2023-10-31T10:45:42.392Z,997.1
2023-10-31T10:46:43.591Z,997.1
2023-10-31T10:47:45.083Z,997.1
2023-10-31T10:48:46.457Z,997.1
2023-10-31T10:49:48.234Z,997.2
2023-10-31T10:50:50.290Z,997.1
2023-10-31T10:51:51.573Z,997.1
2023-10-31T10:52:53.123Z,997.1
2023-10-31T10:53:54.423Z,997.1
2023-10-31T10:54:55.839Z,997.1
2023-10-31T10:55:57.309Z,997.2
2023-10-31T10:56:58.776Z,997.1
2023-10-31T10:58:00.264Z,997.2
2023-10-31T10:59:01.914Z,997.2
2023-10-31T11:00:04.145Z,997.2
2023-10-31T11:01:05.684Z,997.2
2023-10-31T11:02:07.654Z,997.2
2023-10-31T11:03:09.015Z,997.2
2023-10-31T11:04:10.363Z,997.2
2023-10-31T11:05:11.799Z,997.2
2023-10-31T11:06:13.211Z,997.2
2023-10-31T11:07:15.002Z,997.2
2023-10-31T11:08:16.668Z,997.2
2023-10-31T11:09:18.144Z,997.2
2023-10-31T11:10:19.903Z,997.3
2023-10-31T11:11:21.698Z,997.2
2023-10-31T11:12:23.414Z,997.3
2023-10-31T11:13:24.875Z,997.3
2023-10-31T11:14:26.371Z,997.2
2023-10-31T11:15:27.933Z,997.3
2023-10-31T11:16:29.379Z,997.2
2023-10-31T11:17:31.084Z,997.2
2023-10-31T11:18:35.258Z,997.3
2023-10-31T11:19:36.764Z,997.3
2023-10-31T11:20:38.374Z,997.3
2023-10-31T11:21:39.852Z,997.3
2023-10-31T11:22:41.764Z,997.3
2023-10-31T11:23:46.310Z,997.3
2023-10-31T11:24:47.868Z,997.3
2023-10-31T11:25:49.377Z,997.3
2023-10-31T11:26:50.781Z,997.3
2023-10-31T11:27:52.217Z,997.4
2023-10-31T11:28:54.101Z,997.3
2023-10-31T11:31:37.029Z,997.3
2023-10-31T11:32:38.579Z,997.3
2023-10-31T11:33:40.151Z,997.4
2023-10-31T11:35:32.918Z,997.4
2023-10-31T11:36:34.517Z,997.4
2023-10-31T11:37:37.007Z,997.4
2023-10-31T11:38:38.425Z,997.4
2023-10-31T11:39:40.060Z,997.4
2023-10-31T11:40:41.762Z,997.4
2023-10-31T11:41:46.193Z,997.4
2023-10-31T11:42:47.652Z,997.4
2023-10-31T11:43:49.355Z,997.4
2023-10-31T11:44:50.755Z,997.4
2023-10-31T11:45:52.330Z,997.4
2023-10-31T11:46:53.734Z,997.5
2023-10-31T11:47:55.143Z,997.5
2023-10-31T11:48:56.552Z,997.5
2023-10-31T11:49:57.886Z,997.5
2023-10-31T11:50:59.738Z,997.5
2023-10-31T11:52:00.928Z,997.5
2023-10-31T11:54:20.077Z,997.5
2023-10-31T11:55:21.907Z,997.5
2023-10-31T11:56:26.224Z,997.5
2023-10-31T11:57:27.790Z,997.6
2023-10-31T11:58:29.607Z,997.5
2023-10-31T12:00:29.255Z,997.5
2023-10-31T12:01:30.738Z,997.5
2023-10-31T12:02:32.361Z,997.5
2023-10-31T12:10:12.967Z,997.4
2023-10-31T12:11:14.727Z,997.5
2023-10-31T12:14:25.277Z,997.5
2023-10-31T12:15:26.825Z,997.5
2023-10-31T12:16:28.832Z,997.4
2023-10-31T12:17:33.240Z,997.5
2023-10-31T12:19:46.556Z,997.5
2023-10-31T12:20:48.985Z,997.5
2023-10-31T12:21:49.745Z,997.5
2023-10-31T12:22:51.317Z,997.5
2023-10-31T12:23:52.849Z,997.4
2023-10-31T12:24:54.282Z,997.4
2023-10-31T12:26:44.794Z,997.4
2023-10-31T12:27:46.423Z,997.4
2023-10-31T12:28:49.095Z,997.4
2023-10-31T12:30:32.194Z,997.5
2023-10-31T12:31:33.932Z,997.4
2023-10-31T12:32:35.386Z,997.4
2023-10-31T12:33:36.780Z,997.5
2023-10-31T12:35:13.487Z,997.5
2023-10-31T12:36:14.915Z,997.5
2023-10-31T12:37:16.635Z,997.4
2023-10-31T12:38:59.700Z,997.5
2023-10-31T12:40:01.627Z,997.5
2023-10-31T12:41:03.422Z,997.6
2023-10-31T12:42:48.606Z,997.5
2023-10-31T12:43:52.871Z,997.5
2023-10-31T12:44:55.026Z,997.5
2023-10-31T12:45:56.875Z,997.5
2023-10-31T12:47:53.063Z,997.5
2023-10-31T12:48:54.870Z,997.5
2023-10-31T12:49:56.774Z,997.5
2023-10-31T12:51:01.454Z,997.5
2023-10-31T12:52:03.563Z,997.5
2023-10-31T12:53:05.363Z,997.5
2023-10-31T12:54:07.518Z,997.5
2023-10-31T12:55:09.575Z,997.5
2023-10-31T12:56:11.482Z,997.5
2023-10-31T12:57:16.192Z,997.4
2023-10-31T12:58:18.701Z,997.4
2023-10-31T12:59:20.696Z,997.4
2023-10-31T13:00:22.382Z,997.4
2023-10-31T13:01:24.322Z,997.4
2023-10-31T13:02:26.010Z,997.4
2023-10-31T13:03:27.814Z,997.4
2023-10-31T13:04:29.564Z,997.4
2023-10-31T13:05:31.029Z,997.4
2023-10-31T13:06:32.544Z,997.4
2023-10-31T13:07:34.167Z,997.5
2023-10-31T13:08:36.034Z,997.4
2023-10-31T13:09:37.693Z,997.4
2023-10-31T13:10:39.360Z,997.4
2023-10-31T13:11:40.897Z,997.4
2023-10-31T13:12:42.562Z,997.4
2023-10-31T13:13:44.337Z,997.4
2023-10-31T13:14:49.063Z,997.4
2023-10-31T13:15:51.114Z,997.3
2023-10-31T13:16:52.570Z,997.3
2023-10-31T13:17:54.135Z,997.4
2023-10-31T13:18:58.770Z,997.4
2023-10-31T13:20:00.356Z,997.4
2023-10-31T13:21:02.384Z,997.4
2023-10-31T13:22:07.469Z,997.3
2023-10-31T13:23:09.498Z,997.3
2023-10-31T13:24:11.515Z,997.4
2023-10-31T13:25:13.789Z,997.4
2023-10-31T13:26:15.815Z,997.4
2023-10-31T13:27:17.687Z,997.4
2023-10-31T13:28:19.538Z,997.5
2023-10-31T13:29:21.212Z,997.5
2023-10-31T13:30:22.676Z,997.4
2023-10-31T13:31:24.260Z,997.5
2023-10-31T13:32:25.747Z,997.4
2023-10-31T13:33:27.203Z,997.4
2023-10-31T13:34:29.252Z,997.5
2023-10-31T13:35:30.874Z,997.4
2023-10-31T13:36:32.571Z,997.5
2023-10-31T13:37:34.183Z,997.5
2023-10-31T13:38:35.854Z,997.5
2023-10-31T13:39:37.358Z,997.5
2023-10-31T13:40:38.974Z,997.5
2023-10-31T13:41:40.788Z,997.5
2023-10-31T13:42:42.468Z,997.6
2023-10-31T13:43:43.935Z,997.5
2023-10-31T13:44:45.486Z,997.5
2023-10-31T13:45:46.993Z,997.5
2023-10-31T13:46:49.043Z,997.6